Carbury, North Dakota
Current Conditions -  °F | °C
As of 11:33 AM on Sunday 23 Nov 2014 (Local Time) from KMIB Reporting Station
Light Snow Light Snow  
Wind Chill:   Ceiling: 2600
Heat Index: 19°   Visibility: 3mi
Dew Point: 16°   Wind: 24mph
Humidity: 86%   Direction: 340°NNW
Pressure: 29.53"   Gusts: 37mph
Location:  48.9505°N, 100.734°W
Report Text: KMIB 231733Z AUTO 34021G32KT 3SM -SN BR FEW009 OVC026 M07/M09 A2953 RMK AO2 VIS 3/4 RWY29 CIG 021V026 CIG 013 RWY29
Loading
Personal Weather Stations






























Interactive Weather Map New forecast layout! Learn more

10-Day Weather Forecast

Advertisements
Track Severe Weather on mobile